Gas City, IN (46933)

5:06 PM EDT on August 23, 2016 (GMT -0400)
MY Yard Barn | | Change Station

Elev 853 ft 40.49 °N, 85.62 °W | Updated 3 minutes ago

Haze
Haze
83.0 °F
Feels Like 84 °F
N
5.8
Wind Variable Wind from SW
Gusts 8.2 mph

Today
High -- | Low -- °F
--% Chance of Precip.
Yesterday
High -- | Low -- °F
Precip. -- in
Pressure 30.22 in
Visibility 2.0 miles
Clouds Mostly Cloudy 4600 ft
Heat Index 84 °F
Dew Point 61 °F
Humidity 48%
Rainfall 0.00 in
Snow Depth Not available.
7:01 AM 8:27 PM
Waning Gibbous, 64% visible
METAR KMZZ 232055Z AUTO 19005KT 2SM HZ BKN046 25/15 A3022 RMK AO2 VIS 3/4V4 T02510152
Pressure 30.22 in
Visibility 2.0 miles
Clouds Mostly Cloudy 4600 ft
Heat Index 84 °F
Dew Point 61 °F
Humidity 48%
Rainfall 0.00 in
Snow Depth Not available.
7:01 AM 8:27 PM
Waning Gibbous, 64% visible
METAR KMZZ 232055Z AUTO 19005KT 2SM HZ BKN046 25/15 A3022 RMK AO2 VIS 3/4V4 T02510152

10-Day Weather Forecast

Almanac

Astronomy

Aug. 23, 2016 Rise Set
Actual Time
Civil Twilight
Nautical Twilight
Astronomical Twilight
Moon
Length of Visible Light
Length of Day
Tomorrow will be .
, % of the Moon is Illuminated

Today's Extremes

State Highs State Lows

Community

WunderPhotos

Upload Photos

1,934,455 photos uploaded!

WunderBlog® & News

Nearby

Air Quality

  Air Quality AQ Index Pollutant
Not available.

Snow Depth

Station Depth Elevation

Earthquake Activity

City Distance Mag. Time & Date
Minimum magnitude displayed is 2.5.

Coastal Water Temperatures

Place Temperature

Stations

Nearby Weather Stations

Station Location Temp. Windchill Dew Point Humidity Wind Precip. Elev Updated Type
                   

Watches & Warnings

There are currently no watches in effect.